sensor_id;sensor_type;location;lat;lon;timestamp;P1;durP1;ratioP1;P2;durP2;ratioP2
46050;SDS011;31786;43.364;25.142;2022-08-25T00:35:30;9.30;;;4.97;;
46050;SDS011;31786;43.364;25.142;2022-08-25T00:41:20;10.50;;;4.82;;
46050;SDS011;31786;43.364;25.142;2022-08-25T00:47:21;12.30;;;5.40;;
46050;SDS011;31786;43.364;25.142;2022-08-25T00:59:44;12.60;;;5.13;;
46050;SDS011;31786;43.364;25.142;2022-08-25T02:10:26;9.75;;;5.30;;
46050;SDS011;31786;43.364;25.142;2022-08-25T02:32:57;10.75;;;5.20;;
46050;SDS011;31786;43.364;25.142;2022-08-25T02:42:11;14.13;;;6.13;;
46050;SDS011;31786;43.364;25.142;2022-08-25T02:44:38;11.65;;;6.22;;
46050;SDS011;31786;43.364;25.142;2022-08-25T03:19:54;11.70;;;5.95;;
46050;SDS011;31786;43.364;25.142;2022-08-25T03:25:46;18.02;;;6.03;;
46050;SDS011;31786;43.364;25.142;2022-08-25T03:35:22;11.90;;;5.75;;
46050;SDS011;31786;43.364;25.142;2022-08-25T03:41:17;9.90;;;5.75;;
46050;SDS011;31786;43.364;25.142;2022-08-25T03:47:07;14.98;;;5.68;;
46050;SDS011;31786;43.364;25.142;2022-08-25T03:52:59;14.80;;;6.40;;
46050;SDS011;31786;43.364;25.142;2022-08-25T04:06:24;18.98;;;7.53;;
46050;SDS011;31786;43.364;25.142;2022-08-25T04:28:32;11.50;;;6.00;;
46050;SDS011;31786;43.364;25.142;2022-08-25T04:30:59;10.13;;;5.35;;
46050;SDS011;31786;43.364;25.142;2022-08-25T04:33:26;19.90;;;6.00;;
46050;SDS011;31786;43.364;25.142;2022-08-25T04:35:53;11.25;;;5.85;;
46050;SDS011;31786;43.364;25.142;2022-08-25T04:38:21;10.73;;;5.68;;
46050;SDS011;31786;43.364;25.142;2022-08-25T04:40:54;7.75;;;4.95;;
46050;SDS011;31786;43.364;25.142;2022-08-25T04:56:56;14.98;;;5.43;;
46050;SDS011;31786;43.364;25.142;2022-08-25T04:59:23;10.68;;;4.78;;
46050;SDS011;31786;43.364;25.142;2022-08-25T05:01:50;11.82;;;5.95;;
46050;SDS011;31786;43.364;25.142;2022-08-25T05:04:19;8.93;;;4.95;;
46050;SDS011;31786;43.364;25.142;2022-08-25T05:06:47;11.88;;;6.18;;
46050;SDS011;31786;43.364;25.142;2022-08-25T05:09:14;8.40;;;5.78;;
46050;SDS011;31786;43.364;25.142;2022-08-25T05:11:41;10.70;;;5.13;;
46050;SDS011;31786;43.364;25.142;2022-08-25T05:14:09;9.70;;;5.07;;
46050;SDS011;31786;43.364;25.142;2022-08-25T05:16:39;15.05;;;5.15;;
46050;SDS011;31786;43.364;25.142;2022-08-25T05:26:52;14.35;;;5.22;;
46050;SDS011;31786;43.364;25.142;2022-08-25T05:29:20;13.10;;;5.30;;
46050;SDS011;31786;43.364;25.142;2022-08-25T05:31:48;12.25;;;4.68;;
46050;SDS011;31786;43.364;25.142;2022-08-25T05:34:16;15.52;;;5.28;;
46050;SDS011;31786;43.364;25.142;2022-08-25T05:36:43;10.23;;;4.93;;
46050;SDS011;31786;43.364;25.142;2022-08-25T05:39:11;10.07;;;4.95;;
46050;SDS011;31786;43.364;25.142;2022-08-25T05:41:38;23.20;;;5.97;;
46050;SDS011;31786;43.364;25.142;2022-08-25T05:44:05;12.18;;;5.90;;
46050;SDS011;31786;43.364;25.142;2022-08-25T05:46:34;10.70;;;5.75;;
46050;SDS011;31786;43.364;25.142;2022-08-25T05:49:01;9.70;;;5.75;;
46050;SDS011;31786;43.364;25.142;2022-08-25T05:51:28;12.07;;;5.45;;
46050;SDS011;31786;43.364;25.142;2022-08-25T05:53:55;11.07;;;5.50;;
46050;SDS011;31786;43.364;25.142;2022-08-25T05:56:22;15.50;;;5.30;;
46050;SDS011;31786;43.364;25.142;2022-08-25T05:58:49;10.88;;;5.25;;
46050;SDS011;31786;43.364;25.142;2022-08-25T06:01:19;12.52;;;5.45;;
46050;SDS011;31786;43.364;25.142;2022-08-25T06:04:07;10.45;;;5.63;;
46050;SDS011;31786;43.364;25.142;2022-08-25T06:06:34;7.88;;;4.75;;
46050;SDS011;31786;43.364;25.142;2022-08-25T06:09:01;13.05;;;4.40;;
46050;SDS011;31786;43.364;25.142;2022-08-25T06:11:32;9.20;;;5.22;;
46050;SDS011;31786;43.364;25.142;2022-08-25T06:14:01;15.82;;;5.38;;
46050;SDS011;31786;43.364;25.142;2022-08-25T06:16:28;8.82;;;4.28;;
46050;SDS011;31786;43.364;25.142;2022-08-25T06:18:56;8.40;;;3.92;;
46050;SDS011;31786;43.364;25.142;2022-08-25T06:21:24;9.65;;;4.43;;
46050;SDS011;31786;43.364;25.142;2022-08-25T06:23:51;8.23;;;4.22;;
46050;SDS011;31786;43.364;25.142;2022-08-25T06:26:18;8.15;;;4.20;;
46050;SDS011;31786;43.364;25.142;2022-08-25T06:28:45;7.88;;;3.47;;
46050;SDS011;31786;43.364;25.142;2022-08-25T06:31:12;12.90;;;3.70;;
46050;SDS011;31786;43.364;25.142;2022-08-25T06:33:39;6.15;;;3.25;;
46050;SDS011;31786;43.364;25.142;2022-08-25T06:36:06;15.50;;;6.22;;
46050;SDS011;31786;43.364;25.142;2022-08-25T06:38:35;8.60;;;3.60;;
46050;SDS011;31786;43.364;25.142;2022-08-25T06:43:46;8.98;;;3.30;;
46050;SDS011;31786;43.364;25.142;2022-08-25T06:46:14;5.40;;;3.05;;
46050;SDS011;31786;43.364;25.142;2022-08-25T06:48:43;9.93;;;3.70;;
46050;SDS011;31786;43.364;25.142;2022-08-25T06:51:10;15.60;;;5.05;;
46050;SDS011;31786;43.364;25.142;2022-08-25T06:53:41;12.38;;;4.13;;
46050;SDS011;31786;43.364;25.142;2022-08-25T06:56:08;12.13;;;3.47;;
46050;SDS011;31786;43.364;25.142;2022-08-25T07:01:12;14.05;;;4.00;;
46050;SDS011;31786;43.364;25.142;2022-08-25T07:03:40;12.50;;;4.15;;
46050;SDS011;31786;43.364;25.142;2022-08-25T07:21:21;9.00;;;3.05;;
46050;SDS011;31786;43.364;25.142;2022-08-25T07:36:45;12.48;;;2.85;;
46050;SDS011;31786;43.364;25.142;2022-08-25T07:39:12;8.57;;;3.15;;
46050;SDS011;31786;43.364;25.142;2022-08-25T07:41:41;10.68;;;2.88;;
46050;SDS011;31786;43.364;25.142;2022-08-25T07:44:09;12.85;;;3.40;;
46050;SDS011;31786;43.364;25.142;2022-08-25T07:46:37;19.80;;;3.20;;
46050;SDS011;31786;43.364;25.142;2022-08-25T07:49:10;7.15;;;3.35;;
46050;SDS011;31786;43.364;25.142;2022-08-25T07:51:39;7.25;;;2.85;;
46050;SDS011;31786;43.364;25.142;2022-08-25T07:54:08;24.45;;;4.00;;
46050;SDS011;31786;43.364;25.142;2022-08-25T07:56:36;10.32;;;3.22;;
46050;SDS011;31786;43.364;25.142;2022-08-25T07:59:06;20.92;;;3.30;;
46050;SDS011;31786;43.364;25.142;2022-08-25T08:01:33;8.48;;;3.22;;
46050;SDS011;31786;43.364;25.142;2022-08-25T08:04:01;11.48;;;2.95;;
46050;SDS011;31786;43.364;25.142;2022-08-25T08:06:29;8.93;;;2.65;;
46050;SDS011;31786;43.364;25.142;2022-08-25T08:08:56;6.43;;;3.20;;
46050;SDS011;31786;43.364;25.142;2022-08-25T08:11:26;16.42;;;3.10;;
46050;SDS011;31786;43.364;25.142;2022-08-25T08:13:55;14.80;;;3.55;;
46050;SDS011;31786;43.364;25.142;2022-08-25T08:16:23;9.95;;;4.03;;
46050;SDS011;31786;43.364;25.142;2022-08-25T08:18:52;18.98;;;8.65;;
46050;SDS011;31786;43.364;25.142;2022-08-25T08:34:17;16.17;;;3.67;;
46050;SDS011;31786;43.364;25.142;2022-08-25T09:00:06;12.73;;;2.83;;
46050;SDS011;31786;43.364;25.142;2022-08-25T09:05:10;16.33;;;2.42;;
46050;SDS011;31786;43.364;25.142;2022-08-25T09:07:42;4.93;;;2.55;;
46050;SDS011;31786;43.364;25.142;2022-08-25T09:10:12;7.45;;;3.20;;
46050;SDS011;31786;43.364;25.142;2022-08-25T09:12:40;11.48;;;3.60;;
46050;SDS011;31786;43.364;25.142;2022-08-25T09:23:12;11.38;;;2.42;;
46050;SDS011;31786;43.364;25.142;2022-08-25T09:25:48;20.48;;;3.08;;
46050;SDS011;31786;43.364;25.142;2022-08-25T09:28:27;9.52;;;2.00;;
46050;SDS011;31786;43.364;25.142;2022-08-25T09:33:28;8.18;;;2.30;;
46050;SDS011;31786;43.364;25.142;2022-08-25T09:35:56;15.25;;;3.45;;
46050;SDS011;31786;43.364;25.142;2022-08-25T09:38:38;13.23;;;5.60;;
46050;SDS011;31786;43.364;25.142;2022-08-25T10:05:18;6.57;;;1.80;;
46050;SDS011;31786;43.364;25.142;2022-08-25T10:52:28;11.55;;;2.90;;
46050;SDS011;31786;43.364;25.142;2022-08-25T10:57:34;13.30;;;3.20;;
46050;SDS011;31786;43.364;25.142;2022-08-25T11:26:21;7.03;;;2.88;;
46050;SDS011;31786;43.364;25.142;2022-08-25T11:28:56;16.02;;;2.22;;
46050;SDS011;31786;43.364;25.142;2022-08-25T11:31:27;8.13;;;2.50;;
46050;SDS011;31786;43.364;25.142;2022-08-25T11:33:55;11.90;;;2.25;;
46050;SDS011;31786;43.364;25.142;2022-08-25T11:36:24;3.78;;;2.22;;
46050;SDS011;31786;43.364;25.142;2022-08-25T11:39:06;12.45;;;3.22;;
46050;SDS011;31786;43.364;25.142;2022-08-25T11:41:43;4.35;;;2.40;;
46050;SDS011;31786;43.364;25.142;2022-08-25T12:12:56;5.93;;;2.45;;
46050;SDS011;31786;43.364;25.142;2022-08-25T12:15:58;9.00;;;2.38;;
46050;SDS011;31786;43.364;25.142;2022-08-25T12:24:15;31.10;;;3.35;;
46050;SDS011;31786;43.364;25.142;2022-08-25T12:26:44;3.00;;;2.10;;
46050;SDS011;31786;43.364;25.142;2022-08-25T12:29:20;7.50;;;3.08;;
46050;SDS011;31786;43.364;25.142;2022-08-25T12:38:02;9.25;;;3.05;;
46050;SDS011;31786;43.364;25.142;2022-08-25T12:40:31;6.70;;;1.90;;
46050;SDS011;31786;43.364;25.142;2022-08-25T12:43:05;8.85;;;2.08;;
46050;SDS011;31786;43.364;25.142;2022-08-25T12:45:41;4.82;;;2.58;;
46050;SDS011;31786;43.364;25.142;2022-08-25T12:51:14;3.78;;;2.35;;
46050;SDS011;31786;43.364;25.142;2022-08-25T12:53:45;7.80;;;2.40;;
46050;SDS011;31786;43.364;25.142;2022-08-25T12:56:22;10.77;;;2.47;;
46050;SDS011;31786;43.364;25.142;2022-08-25T12:59:02;8.10;;;2.40;;
46050;SDS011;31786;43.364;25.142;2022-08-25T13:01:46;7.03;;;2.97;;
46050;SDS011;31786;43.364;25.142;2022-08-25T13:07:22;9.80;;;2.72;;
46050;SDS011;31786;43.364;25.142;2022-08-25T13:12:32;4.72;;;2.08;;
46050;SDS011;31786;43.364;25.142;2022-08-25T13:15:05;5.20;;;2.30;;
46050;SDS011;31786;43.364;25.142;2022-08-25T13:17:34;5.03;;;1.90;;
46050;SDS011;31786;43.364;25.142;2022-08-25T13:20:11;10.20;;;2.97;;
46050;SDS011;31786;43.364;25.142;2022-08-25T13:22:40;10.02;;;2.90;;
46050;SDS011;31786;43.364;25.142;2022-08-25T13:25:13;7.10;;;2.58;;
46050;SDS011;31786;43.364;25.142;2022-08-25T13:32:47;9.65;;;2.72;;
46050;SDS011;31786;43.364;25.142;2022-08-25T13:40:28;3.80;;;1.83;;
46050;SDS011;31786;43.364;25.142;2022-08-25T13:45:31;7.38;;;2.28;;
46050;SDS011;31786;43.364;25.142;2022-08-25T13:53:14;10.05;;;2.83;;
46050;SDS011;31786;43.364;25.142;2022-08-25T13:55:48;5.88;;;3.53;;
46050;SDS011;31786;43.364;25.142;2022-08-25T13:58:18;8.73;;;2.15;;
46050;SDS011;31786;43.364;25.142;2022-08-25T14:01:00;6.78;;;2.90;;
46050;SDS011;31786;43.364;25.142;2022-08-25T14:03:32;6.28;;;2.20;;
46050;SDS011;31786;43.364;25.142;2022-08-25T14:06:06;10.90;;;3.22;;
46050;SDS011;31786;43.364;25.142;2022-08-25T14:08:38;7.10;;;2.20;;
46050;SDS011;31786;43.364;25.142;2022-08-25T14:11:14;8.73;;;2.30;;
46050;SDS011;31786;43.364;25.142;2022-08-25T14:14:06;7.22;;;2.50;;
46050;SDS011;31786;43.364;25.142;2022-08-25T14:16:37;2.65;;;1.98;;
46050;SDS011;31786;43.364;25.142;2022-08-25T14:19:07;11.77;;;3.03;;
46050;SDS011;31786;43.364;25.142;2022-08-25T14:21:39;7.78;;;2.95;;
46050;SDS011;31786;43.364;25.142;2022-08-25T14:24:07;14.07;;;2.92;;
46050;SDS011;31786;43.364;25.142;2022-08-25T14:29:10;12.15;;;1.83;;
46050;SDS011;31786;43.364;25.142;2022-08-25T14:51:22;6.60;;;2.17;;
46050;SDS011;31786;43.364;25.142;2022-08-25T14:53:49;9.10;;;2.63;;
46050;SDS011;31786;43.364;25.142;2022-08-25T15:09:26;9.75;;;2.05;;
46050;SDS011;31786;43.364;25.142;2022-08-25T15:11:54;12.02;;;2.25;;
46050;SDS011;31786;43.364;25.142;2022-08-25T15:14:22;6.50;;;2.35;;
46050;SDS011;31786;43.364;25.142;2022-08-25T15:16:55;12.73;;;2.08;;
46050;SDS011;31786;43.364;25.142;2022-08-25T15:19:25;6.63;;;1.67;;
46050;SDS011;31786;43.364;25.142;2022-08-25T15:21:56;7.40;;;2.50;;
46050;SDS011;31786;43.364;25.142;2022-08-25T15:24:22;9.80;;;2.92;;
46050;SDS011;31786;43.364;25.142;2022-08-25T15:26:51;13.48;;;2.72;;
46050;SDS011;31786;43.364;25.142;2022-08-25T15:29:20;10.25;;;2.95;;
46050;SDS011;31786;43.364;25.142;2022-08-25T16:15:56;13.15;;;3.13;;
46050;SDS011;31786;43.364;25.142;2022-08-25T16:18:23;13.50;;;3.40;;
46050;SDS011;31786;43.364;25.142;2022-08-25T16:20:51;7.05;;;3.15;;
46050;SDS011;31786;43.364;25.142;2022-08-25T16:23:18;9.95;;;3.10;;
46050;SDS011;31786;43.364;25.142;2022-08-25T16:25:46;10.05;;;2.90;;
46050;SDS011;31786;43.364;25.142;2022-08-25T16:28:14;7.90;;;2.92;;
46050;SDS011;31786;43.364;25.142;2022-08-25T16:30:43;10.75;;;2.95;;
46050;SDS011;31786;43.364;25.142;2022-08-25T16:33:12;13.45;;;3.42;;
46050;SDS011;31786;43.364;25.142;2022-08-25T16:35:40;14.05;;;2.88;;
46050;SDS011;31786;43.364;25.142;2022-08-25T16:38:07;8.27;;;2.05;;
46050;SDS011;31786;43.364;25.142;2022-08-25T16:40:36;5.47;;;1.75;;
46050;SDS011;31786;43.364;25.142;2022-08-25T16:43:04;11.90;;;2.42;;
46050;SDS011;31786;43.364;25.142;2022-08-25T16:45:31;9.80;;;1.83;;
46050;SDS011;31786;43.364;25.142;2022-08-25T16:47:58;8.93;;;2.33;;
46050;SDS011;31786;43.364;25.142;2022-08-25T16:50:26;7.68;;;2.45;;
46050;SDS011;31786;43.364;25.142;2022-08-25T16:52:54;7.40;;;2.65;;
46050;SDS011;31786;43.364;25.142;2022-08-25T16:55:39;12.50;;;2.65;;
46050;SDS011;31786;43.364;25.142;2022-08-25T16:58:06;9.95;;;3.33;;
46050;SDS011;31786;43.364;25.142;2022-08-25T17:00:34;18.08;;;2.60;;
46050;SDS011;31786;43.364;25.142;2022-08-25T17:03:02;13.95;;;2.85;;
46050;SDS011;31786;43.364;25.142;2022-08-25T17:05:31;7.97;;;2.08;;
46050;SDS011;31786;43.364;25.142;2022-08-25T17:07:59;13.57;;;2.53;;
46050;SDS011;31786;43.364;25.142;2022-08-25T17:10:43;12.63;;;2.47;;
46050;SDS011;31786;43.364;25.142;2022-08-25T17:13:10;6.13;;;2.33;;
46050;SDS011;31786;43.364;25.142;2022-08-25T17:15:38;12.60;;;3.00;;
46050;SDS011;31786;43.364;25.142;2022-08-25T17:18:05;10.90;;;2.88;;
46050;SDS011;31786;43.364;25.142;2022-08-25T17:20:34;8.70;;;2.17;;
46050;SDS011;31786;43.364;25.142;2022-08-25T17:23:01;14.90;;;2.70;;
46050;SDS011;31786;43.364;25.142;2022-08-25T17:25:32;19.75;;;3.10;;
46050;SDS011;31786;43.364;25.142;2022-08-25T17:27:59;3.60;;;2.17;;
46050;SDS011;31786;43.364;25.142;2022-08-25T17:30:26;5.78;;;2.00;;
46050;SDS011;31786;43.364;25.142;2022-08-25T17:32:53;8.15;;;3.05;;
46050;SDS011;31786;43.364;25.142;2022-08-25T17:35:20;9.95;;;3.05;;
46050;SDS011;31786;43.364;25.142;2022-08-25T17:37:48;6.25;;;2.53;;
46050;SDS011;31786;43.364;25.142;2022-08-25T17:40:15;14.50;;;3.05;;
46050;SDS011;31786;43.364;25.142;2022-08-25T17:42:42;10.90;;;3.10;;
46050;SDS011;31786;43.364;25.142;2022-08-25T17:45:10;9.32;;;3.20;;
46050;SDS011;31786;43.364;25.142;2022-08-25T17:47:36;15.25;;;3.90;;
46050;SDS011;31786;43.364;25.142;2022-08-25T17:50:03;15.35;;;3.67;;
46050;SDS011;31786;43.364;25.142;2022-08-25T17:52:31;13.23;;;3.47;;
46050;SDS011;31786;43.364;25.142;2022-08-25T17:54:59;15.73;;;5.47;;
46050;SDS011;31786;43.364;25.142;2022-08-25T17:57:26;25.10;;;6.45;;
46050;SDS011;31786;43.364;25.142;2022-08-25T17:59:53;30.38;;;7.90;;
46050;SDS011;31786;43.364;25.142;2022-08-25T18:02:19;22.23;;;9.07;;
46050;SDS011;31786;43.364;25.142;2022-08-25T18:04:46;22.30;;;8.23;;
46050;SDS011;31786;43.364;25.142;2022-08-25T18:07:13;14.15;;;7.07;;
46050;SDS011;31786;43.364;25.142;2022-08-25T18:09:40;19.92;;;6.32;;
46050;SDS011;31786;43.364;25.142;2022-08-25T18:12:09;17.80;;;6.95;;
46050;SDS011;31786;43.364;25.142;2022-08-25T18:14:36;16.88;;;5.80;;
46050;SDS011;31786;43.364;25.142;2022-08-25T18:17:03;16.17;;;5.03;;
46050;SDS011;31786;43.364;25.142;2022-08-25T18:19:30;26.13;;;4.70;;
46050;SDS011;31786;43.364;25.142;2022-08-25T18:21:57;20.75;;;5.05;;
46050;SDS011;31786;43.364;25.142;2022-08-25T18:24:28;18.02;;;3.88;;
46050;SDS011;31786;43.364;25.142;2022-08-25T18:26:55;28.00;;;4.88;;
46050;SDS011;31786;43.364;25.142;2022-08-25T18:29:25;12.05;;;3.70;;
46050;SDS011;31786;43.364;25.142;2022-08-25T18:31:52;14.77;;;4.32;;
46050;SDS011;31786;43.364;25.142;2022-08-25T18:34:20;9.85;;;4.05;;
46050;SDS011;31786;43.364;25.142;2022-08-25T18:36:48;11.90;;;4.07;;
46050;SDS011;31786;43.364;25.142;2022-08-25T18:39:16;13.73;;;3.47;;
46050;SDS011;31786;43.364;25.142;2022-08-25T18:42:00;18.88;;;3.70;;
46050;SDS011;31786;43.364;25.142;2022-08-25T18:44:28;13.65;;;3.17;;
46050;SDS011;31786;43.364;25.142;2022-08-25T18:46:56;7.90;;;3.78;;
46050;SDS011;31786;43.364;25.142;2022-08-25T18:49:23;12.00;;;3.80;;
46050;SDS011;31786;43.364;25.142;2022-08-25T18:51:50;18.52;;;3.38;;
46050;SDS011;31786;43.364;25.142;2022-08-25T18:54:17;14.95;;;3.20;;
46050;SDS011;31786;43.364;25.142;2022-08-25T18:56:45;15.27;;;3.20;;
46050;SDS011;31786;43.364;25.142;2022-08-25T18:59:12;10.07;;;3.50;;
46050;SDS011;31786;43.364;25.142;2022-08-25T19:01:40;20.52;;;3.50;;
46050;SDS011;31786;43.364;25.142;2022-08-25T19:04:08;8.95;;;2.40;;
46050;SDS011;31786;43.364;25.142;2022-08-25T19:06:35;13.43;;;3.03;;
46050;SDS011;31786;43.364;25.142;2022-08-25T19:09:02;15.88;;;3.22;;
46050;SDS011;31786;43.364;25.142;2022-08-25T19:11:29;8.30;;;3.33;;
46050;SDS011;31786;43.364;25.142;2022-08-25T19:13:56;11.20;;;2.80;;
46050;SDS011;31786;43.364;25.142;2022-08-25T19:16:35;12.88;;;2.53;;
46050;SDS011;31786;43.364;25.142;2022-08-25T19:19:04;10.93;;;2.45;;
46050;SDS011;31786;43.364;25.142;2022-08-25T19:21:32;30.27;;;4.28;;
46050;SDS011;31786;43.364;25.142;2022-08-25T19:23:59;11.98;;;3.30;;
46050;SDS011;31786;43.364;25.142;2022-08-25T19:26:26;15.10;;;3.95;;
46050;SDS011;31786;43.364;25.142;2022-08-25T19:28:53;6.32;;;2.20;;
46050;SDS011;31786;43.364;25.142;2022-08-25T19:31:21;6.13;;;1.98;;
46050;SDS011;31786;43.364;25.142;2022-08-25T19:33:50;6.30;;;2.38;;
46050;SDS011;31786;43.364;25.142;2022-08-25T19:36:20;9.02;;;2.47;;
46050;SDS011;31786;43.364;25.142;2022-08-25T19:38:49;11.10;;;2.30;;
46050;SDS011;31786;43.364;25.142;2022-08-25T19:41:16;7.43;;;2.15;;
46050;SDS011;31786;43.364;25.142;2022-08-25T19:43:44;9.18;;;3.00;;
46050;SDS011;31786;43.364;25.142;2022-08-25T19:46:13;10.30;;;2.78;;
46050;SDS011;31786;43.364;25.142;2022-08-25T19:48:40;14.55;;;3.45;;
46050;SDS011;31786;43.364;25.142;2022-08-25T19:51:06;10.73;;;3.15;;
46050;SDS011;31786;43.364;25.142;2022-08-25T19:53:35;7.63;;;2.63;;
46050;SDS011;31786;43.364;25.142;2022-08-25T19:56:02;7.78;;;2.40;;
46050;SDS011;31786;43.364;25.142;2022-08-25T19:58:30;5.63;;;3.40;;
46050;SDS011;31786;43.364;25.142;2022-08-25T20:00:57;5.28;;;2.47;;
46050;SDS011;31786;43.364;25.142;2022-08-25T20:03:24;5.90;;;2.92;;
46050;SDS011;31786;43.364;25.142;2022-08-25T20:05:53;10.23;;;3.03;;
46050;SDS011;31786;43.364;25.142;2022-08-25T20:08:21;13.85;;;2.22;;
46050;SDS011;31786;43.364;25.142;2022-08-25T20:10:49;11.73;;;3.35;;
46050;SDS011;31786;43.364;25.142;2022-08-25T20:13:17;11.50;;;3.35;;
46050;SDS011;31786;43.364;25.142;2022-08-25T20:15:44;13.23;;;3.58;;
46050;SDS011;31786;43.364;25.142;2022-08-25T20:18:11;8.95;;;2.78;;
46050;SDS011;31786;43.364;25.142;2022-08-25T20:20:38;7.35;;;2.97;;
46050;SDS011;31786;43.364;25.142;2022-08-25T20:23:05;10.43;;;3.95;;
46050;SDS011;31786;43.364;25.142;2022-08-25T20:25:50;10.77;;;3.72;;
46050;SDS011;31786;43.364;25.142;2022-08-25T20:28:18;12.70;;;3.67;;
46050;SDS011;31786;43.364;25.142;2022-08-25T20:30:45;22.60;;;3.95;;
46050;SDS011;31786;43.364;25.142;2022-08-25T20:33:11;14.77;;;3.15;;
46050;SDS011;31786;43.364;25.142;2022-08-25T20:35:38;11.57;;;2.90;;
46050;SDS011;31786;43.364;25.142;2022-08-25T20:38:05;11.48;;;3.45;;
46050;SDS011;31786;43.364;25.142;2022-08-25T20:40:32;11.85;;;3.55;;
46050;SDS011;31786;43.364;25.142;2022-08-25T20:43:00;11.15;;;2.75;;
46050;SDS011;31786;43.364;25.142;2022-08-25T20:45:28;7.60;;;2.83;;
46050;SDS011;31786;43.364;25.142;2022-08-25T20:47:55;13.23;;;3.05;;
46050;SDS011;31786;43.364;25.142;2022-08-25T20:50:22;11.38;;;4.05;;
46050;SDS011;31786;43.364;25.142;2022-08-25T20:52:49;13.95;;;2.85;;
46050;SDS011;31786;43.364;25.142;2022-08-25T20:55:18;12.38;;;2.88;;
46050;SDS011;31786;43.364;25.142;2022-08-25T20:57:46;5.55;;;2.17;;
46050;SDS011;31786;43.364;25.142;2022-08-25T21:00:18;5.53;;;2.35;;
46050;SDS011;31786;43.364;25.142;2022-08-25T21:02:45;6.85;;;3.22;;
46050;SDS011;31786;43.364;25.142;2022-08-25T21:05:14;20.13;;;4.20;;
46050;SDS011;31786;43.364;25.142;2022-08-25T21:07:42;9.77;;;2.60;;
46050;SDS011;31786;43.364;25.142;2022-08-25T21:10:09;9.40;;;2.00;;
46050;SDS011;31786;43.364;25.142;2022-08-25T21:12:37;11.80;;;3.80;;
46050;SDS011;31786;43.364;25.142;2022-08-25T21:15:04;7.90;;;2.30;;
46050;SDS011;31786;43.364;25.142;2022-08-25T21:17:34;14.15;;;3.20;;
46050;SDS011;31786;43.364;25.142;2022-08-25T21:20:01;7.40;;;2.33;;
46050;SDS011;31786;43.364;25.142;2022-08-25T21:22:28;9.85;;;2.58;;
46050;SDS011;31786;43.364;25.142;2022-08-25T21:24:55;9.52;;;2.50;;
46050;SDS011;31786;43.364;25.142;2022-08-25T21:27:22;8.07;;;2.00;;
46050;SDS011;31786;43.364;25.142;2022-08-25T21:29:50;6.28;;;2.55;;
46050;SDS011;31786;43.364;25.142;2022-08-25T21:32:16;10.23;;;2.50;;
46050;SDS011;31786;43.364;25.142;2022-08-25T21:34:45;15.65;;;3.45;;
46050;SDS011;31786;43.364;25.142;2022-08-25T21:37:16;8.60;;;3.25;;
46050;SDS011;31786;43.364;25.142;2022-08-25T21:39:43;13.85;;;2.72;;
46050;SDS011;31786;43.364;25.142;2022-08-25T21:42:10;8.50;;;1.88;;
46050;SDS011;31786;43.364;25.142;2022-08-25T21:44:37;15.90;;;2.83;;
46050;SDS011;31786;43.364;25.142;2022-08-25T21:47:04;8.88;;;2.30;;
46050;SDS011;31786;43.364;25.142;2022-08-25T21:49:31;6.10;;;2.65;;
46050;SDS011;31786;43.364;25.142;2022-08-25T21:51:59;11.23;;;3.05;;
46050;SDS011;31786;43.364;25.142;2022-08-25T21:54:26;6.82;;;2.67;;
46050;SDS011;31786;43.364;25.142;2022-08-25T21:56:54;4.82;;;2.58;;
46050;SDS011;31786;43.364;25.142;2022-08-25T21:59:23;10.73;;;2.33;;
46050;SDS011;31786;43.364;25.142;2022-08-25T22:01:53;23.63;;;2.90;;
46050;SDS011;31786;43.364;25.142;2022-08-25T22:04:20;11.15;;;2.40;;
46050;SDS011;31786;43.364;25.142;2022-08-25T22:06:47;7.43;;;3.60;;
46050;SDS011;31786;43.364;25.142;2022-08-25T22:09:16;13.38;;;3.30;;
46050;SDS011;31786;43.364;25.142;2022-08-25T22:11:43;5.60;;;1.98;;
46050;SDS011;31786;43.364;25.142;2022-08-25T22:14:11;6.10;;;2.33;;
46050;SDS011;31786;43.364;25.142;2022-08-25T22:16:38;5.85;;;2.25;;
46050;SDS011;31786;43.364;25.142;2022-08-25T22:19:06;9.82;;;3.03;;
46050;SDS011;31786;43.364;25.142;2022-08-25T22:21:35;7.40;;;2.42;;
46050;SDS011;31786;43.364;25.142;2022-08-25T22:24:02;11.88;;;2.90;;
46050;SDS011;31786;43.364;25.142;2022-08-25T22:26:32;8.88;;;3.38;;
46050;SDS011;31786;43.364;25.142;2022-08-25T22:29:00;7.50;;;1.88;;
46050;SDS011;31786;43.364;25.142;2022-08-25T22:31:27;12.75;;;3.33;;
46050;SDS011;31786;43.364;25.142;2022-08-25T22:33:55;7.10;;;2.40;;
46050;SDS011;31786;43.364;25.142;2022-08-25T22:36:23;7.13;;;2.60;;
46050;SDS011;31786;43.364;25.142;2022-08-25T22:38:52;8.70;;;2.92;;
46050;SDS011;31786;43.364;25.142;2022-08-25T22:41:19;7.38;;;1.98;;
46050;SDS011;31786;43.364;25.142;2022-08-25T22:43:49;6.15;;;2.60;;
46050;SDS011;31786;43.364;25.142;2022-08-25T22:46:17;7.53;;;2.28;;
46050;SDS011;31786;43.364;25.142;2022-08-25T22:48:45;15.73;;;2.83;;
46050;SDS011;31786;43.364;25.142;2022-08-25T22:51:13;10.23;;;2.67;;
46050;SDS011;31786;43.364;25.142;2022-08-25T22:53:42;8.70;;;2.20;;
46050;SDS011;31786;43.364;25.142;2022-08-25T22:56:11;4.57;;;2.55;;
46050;SDS011;31786;43.364;25.142;2022-08-25T22:58:38;5.68;;;2.08;;
46050;SDS011;31786;43.364;25.142;2022-08-25T23:01:12;5.95;;;2.38;;
46050;SDS011;31786;43.364;25.142;2022-08-25T23:03:40;11.50;;;2.67;;
46050;SDS011;31786;43.364;25.142;2022-08-25T23:06:10;10.63;;;2.30;;
46050;SDS011;31786;43.364;25.142;2022-08-25T23:08:38;9.38;;;2.35;;
46050;SDS011;31786;43.364;25.142;2022-08-25T23:11:06;6.07;;;2.40;;
46050;SDS011;31786;43.364;25.142;2022-08-25T23:13:34;14.95;;;3.53;;
46050;SDS011;31786;43.364;25.142;2022-08-25T23:16:01;7.45;;;2.83;;
46050;SDS011;31786;43.364;25.142;2022-08-25T23:18:30;5.90;;;2.03;;
46050;SDS011;31786;43.364;25.142;2022-08-25T23:20:57;6.72;;;2.20;;
46050;SDS011;31786;43.364;25.142;2022-08-25T23:23:41;10.50;;;2.72;;
46050;SDS011;31786;43.364;25.142;2022-08-25T23:26:09;3.58;;;2.13;;
46050;SDS011;31786;43.364;25.142;2022-08-25T23:28:36;9.95;;;2.45;;
46050;SDS011;31786;43.364;25.142;2022-08-25T23:31:04;7.78;;;2.30;;
46050;SDS011;31786;43.364;25.142;2022-08-25T23:33:34;3.05;;;2.03;;
46050;SDS011;31786;43.364;25.142;2022-08-25T23:36:02;8.57;;;2.58;;
46050;SDS011;31786;43.364;25.142;2022-08-25T23:38:30;6.85;;;2.42;;
46050;SDS011;31786;43.364;25.142;2022-08-25T23:40:57;5.82;;;2.28;;
46050;SDS011;31786;43.364;25.142;2022-08-25T23:43:25;6.65;;;2.35;;
46050;SDS011;31786;43.364;25.142;2022-08-25T23:45:52;7.35;;;2.30;;
46050;SDS011;31786;43.364;25.142;2022-08-25T23:48:18;5.60;;;2.58;;
46050;SDS011;31786;43.364;25.142;2022-08-25T23:50:47;8.10;;;2.40;;
46050;SDS011;31786;43.364;25.142;2022-08-25T23:53:15;4.60;;;2.58;;
46050;SDS011;31786;43.364;25.142;2022-08-25T23:55:44;12.98;;;2.55;;
46050;SDS011;31786;43.364;25.142;2022-08-25T23:58:12;7.95;;;2.78;;
